sensor_id;sensor_type;location;lat;lon;timestamp;P1;durP1;ratioP1;P2;durP2;ratioP2
1545;SDS011;766;51.502;9.752;2022-11-15T00:01:20;10.70;;;4.78;;
1545;SDS011;766;51.502;9.752;2022-11-15T00:03:50;8.35;;;4.22;;
1545;SDS011;766;51.502;9.752;2022-11-15T00:06:21;7.97;;;4.72;;
1545;SDS011;766;51.502;9.752;2022-11-15T00:08:51;11.55;;;5.38;;
1545;SDS011;766;51.502;9.752;2022-11-15T00:11:20;7.78;;;4.43;;
1545;SDS011;766;51.502;9.752;2022-11-15T00:13:48;12.32;;;5.07;;
1545;SDS011;766;51.502;9.752;2022-11-15T00:16:17;12.35;;;4.45;;
1545;SDS011;766;51.502;9.752;2022-11-15T00:18:45;6.97;;;4.18;;
1545;SDS011;766;51.502;9.752;2022-11-15T00:21:16;6.45;;;4.30;;
1545;SDS011;766;51.502;9.752;2022-11-15T00:23:45;7.82;;;4.25;;
1545;SDS011;766;51.502;9.752;2022-11-15T00:26:16;7.38;;;4.30;;
1545;SDS011;766;51.502;9.752;2022-11-15T00:28:46;7.78;;;4.78;;
1545;SDS011;766;51.502;9.752;2022-11-15T00:31:15;6.38;;;3.95;;
1545;SDS011;766;51.502;9.752;2022-11-15T00:33:44;6.70;;;4.32;;
1545;SDS011;766;51.502;9.752;2022-11-15T00:36:14;6.20;;;4.32;;
1545;SDS011;766;51.502;9.752;2022-11-15T00:38:42;6.95;;;4.20;;
1545;SDS011;766;51.502;9.752;2022-11-15T00:41:10;7.15;;;4.18;;
1545;SDS011;766;51.502;9.752;2022-11-15T00:43:40;8.20;;;3.80;;
1545;SDS011;766;51.502;9.752;2022-11-15T00:46:12;7.65;;;4.07;;
1545;SDS011;766;51.502;9.752;2022-11-15T00:48:41;7.20;;;4.35;;
1545;SDS011;766;51.502;9.752;2022-11-15T00:51:10;7.85;;;4.53;;
1545;SDS011;766;51.502;9.752;2022-11-15T00:53:39;5.60;;;3.40;;
1545;SDS011;766;51.502;9.752;2022-11-15T00:56:07;6.55;;;4.03;;
1545;SDS011;766;51.502;9.752;2022-11-15T00:58:35;11.95;;;3.95;;
1545;SDS011;766;51.502;9.752;2022-11-15T01:01:08;6.85;;;4.10;;
1545;SDS011;766;51.502;9.752;2022-11-15T01:03:38;8.10;;;3.63;;
1545;SDS011;766;51.502;9.752;2022-11-15T01:06:07;7.85;;;3.90;;
1545;SDS011;766;51.502;9.752;2022-11-15T01:08:36;6.78;;;3.70;;
1545;SDS011;766;51.502;9.752;2022-11-15T01:11:06;6.65;;;4.05;;
1545;SDS011;766;51.502;9.752;2022-11-15T01:13:36;5.55;;;3.65;;
1545;SDS011;766;51.502;9.752;2022-11-15T01:16:10;7.20;;;3.78;;
1545;SDS011;766;51.502;9.752;2022-11-15T01:18:40;7.20;;;4.03;;
1545;SDS011;766;51.502;9.752;2022-11-15T01:21:10;8.63;;;4.10;;
1545;SDS011;766;51.502;9.752;2022-11-15T01:23:41;7.93;;;3.90;;
1545;SDS011;766;51.502;9.752;2022-11-15T01:26:11;8.25;;;3.65;;
1545;SDS011;766;51.502;9.752;2022-11-15T01:28:45;8.90;;;4.30;;
1545;SDS011;766;51.502;9.752;2022-11-15T01:31:15;8.90;;;3.83;;
1545;SDS011;766;51.502;9.752;2022-11-15T01:33:46;6.57;;;3.95;;
1545;SDS011;766;51.502;9.752;2022-11-15T01:36:15;8.18;;;4.22;;
1545;SDS011;766;51.502;9.752;2022-11-15T01:38:45;8.27;;;3.75;;
1545;SDS011;766;51.502;9.752;2022-11-15T01:41:17;8.13;;;3.75;;
1545;SDS011;766;51.502;9.752;2022-11-15T01:43:48;9.48;;;4.00;;
1545;SDS011;766;51.502;9.752;2022-11-15T01:46:25;10.00;;;4.82;;
1545;SDS011;766;51.502;9.752;2022-11-15T01:48:59;5.13;;;3.80;;
1545;SDS011;766;51.502;9.752;2022-11-15T01:51:35;5.38;;;3.70;;
1545;SDS011;766;51.502;9.752;2022-11-15T01:54:05;7.30;;;4.03;;
1545;SDS011;766;51.502;9.752;2022-11-15T01:56:37;6.78;;;3.60;;
1545;SDS011;766;51.502;9.752;2022-11-15T01:59:11;6.63;;;3.38;;
1545;SDS011;766;51.502;9.752;2022-11-15T02:01:41;5.32;;;3.75;;
1545;SDS011;766;51.502;9.752;2022-11-15T02:04:12;8.65;;;3.40;;
1545;SDS011;766;51.502;9.752;2022-11-15T02:06:45;5.85;;;3.80;;
1545;SDS011;766;51.502;9.752;2022-11-15T02:09:16;5.63;;;2.97;;
1545;SDS011;766;51.502;9.752;2022-11-15T02:11:46;6.50;;;4.00;;
1545;SDS011;766;51.502;9.752;2022-11-15T02:14:17;3.30;;;3.00;;
1545;SDS011;766;51.502;9.752;2022-11-15T02:16:50;10.93;;;3.55;;
1545;SDS011;766;51.502;9.752;2022-11-15T02:19:29;5.82;;;3.58;;
1545;SDS011;766;51.502;9.752;2022-11-15T02:22:20;4.20;;;2.95;;
1545;SDS011;766;51.502;9.752;2022-11-15T02:25:01;8.15;;;3.15;;
1545;SDS011;766;51.502;9.752;2022-11-15T02:30:49;5.80;;;3.40;;
1545;SDS011;766;51.502;9.752;2022-11-15T02:33:25;9.32;;;3.30;;
1545;SDS011;766;51.502;9.752;2022-11-15T02:36:04;5.38;;;3.60;;
1545;SDS011;766;51.502;9.752;2022-11-15T02:38:38;5.60;;;3.40;;
1545;SDS011;766;51.502;9.752;2022-11-15T02:41:13;6.97;;;3.30;;
1545;SDS011;766;51.502;9.752;2022-11-15T02:43:46;6.75;;;3.17;;
1545;SDS011;766;51.502;9.752;2022-11-15T02:46:26;8.23;;;3.40;;
1545;SDS011;766;51.502;9.752;2022-11-15T02:49:20;5.95;;;3.33;;
1545;SDS011;766;51.502;9.752;2022-11-15T02:51:52;4.60;;;3.00;;
1545;SDS011;766;51.502;9.752;2022-11-15T02:54:24;5.22;;;3.60;;
1545;SDS011;766;51.502;9.752;2022-11-15T02:56:56;5.05;;;3.15;;
1545;SDS011;766;51.502;9.752;2022-11-15T02:59:34;8.00;;;3.28;;
1545;SDS011;766;51.502;9.752;2022-11-15T03:02:20;9.82;;;3.67;;
1545;SDS011;766;51.502;9.752;2022-11-15T03:05:01;5.57;;;3.25;;
1545;SDS011;766;51.502;9.752;2022-11-15T03:07:36;3.90;;;2.90;;
1545;SDS011;766;51.502;9.752;2022-11-15T03:10:12;8.57;;;3.42;;
1545;SDS011;766;51.502;9.752;2022-11-15T03:12:51;3.60;;;2.90;;
1545;SDS011;766;51.502;9.752;2022-11-15T03:15:26;6.75;;;3.40;;
1545;SDS011;766;51.502;9.752;2022-11-15T03:18:00;7.25;;;3.13;;
1545;SDS011;766;51.502;9.752;2022-11-15T03:20:32;6.53;;;3.08;;
1545;SDS011;766;51.502;9.752;2022-11-15T03:23:05;4.40;;;2.55;;
1545;SDS011;766;51.502;9.752;2022-11-15T03:25:41;7.50;;;2.75;;
1545;SDS011;766;51.502;9.752;2022-11-15T03:28:13;7.78;;;3.10;;
1545;SDS011;766;51.502;9.752;2022-11-15T03:30:47;4.70;;;2.60;;
1545;SDS011;766;51.502;9.752;2022-11-15T03:33:22;7.00;;;3.38;;
1545;SDS011;766;51.502;9.752;2022-11-15T03:35:53;8.40;;;3.03;;
1545;SDS011;766;51.502;9.752;2022-11-15T03:38:26;5.93;;;3.03;;
1545;SDS011;766;51.502;9.752;2022-11-15T03:41:01;4.75;;;2.95;;
1545;SDS011;766;51.502;9.752;2022-11-15T03:43:35;5.30;;;3.33;;
1545;SDS011;766;51.502;9.752;2022-11-15T03:46:11;5.90;;;3.22;;
1545;SDS011;766;51.502;9.752;2022-11-15T03:48:45;5.25;;;3.03;;
1545;SDS011;766;51.502;9.752;2022-11-15T03:51:17;5.32;;;3.03;;
1545;SDS011;766;51.502;9.752;2022-11-15T03:53:46;5.18;;;3.20;;
1545;SDS011;766;51.502;9.752;2022-11-15T03:56:16;4.93;;;3.20;;
1545;SDS011;766;51.502;9.752;2022-11-15T03:58:45;3.80;;;3.00;;
1545;SDS011;766;51.502;9.752;2022-11-15T04:01:14;6.15;;;3.33;;
1545;SDS011;766;51.502;9.752;2022-11-15T04:03:44;5.60;;;3.30;;
1545;SDS011;766;51.502;9.752;2022-11-15T04:06:16;5.25;;;3.30;;
1545;SDS011;766;51.502;9.752;2022-11-15T04:08:45;5.82;;;3.15;;
1545;SDS011;766;51.502;9.752;2022-11-15T04:11:14;4.57;;;3.25;;
1545;SDS011;766;51.502;9.752;2022-11-15T04:13:45;6.45;;;3.03;;
1545;SDS011;766;51.502;9.752;2022-11-15T04:16:14;4.50;;;3.15;;
1545;SDS011;766;51.502;9.752;2022-11-15T04:18:42;5.85;;;3.38;;
1545;SDS011;766;51.502;9.752;2022-11-15T04:21:12;5.60;;;3.70;;
1545;SDS011;766;51.502;9.752;2022-11-15T04:23:58;7.15;;;3.30;;
1545;SDS011;766;51.502;9.752;2022-11-15T04:26:44;7.05;;;2.67;;
1545;SDS011;766;51.502;9.752;2022-11-15T04:29:12;7.10;;;3.55;;
1545;SDS011;766;51.502;9.752;2022-11-15T04:31:55;5.18;;;3.13;;
1545;SDS011;766;51.502;9.752;2022-11-15T04:34:23;5.50;;;3.53;;
1545;SDS011;766;51.502;9.752;2022-11-15T04:36:53;11.07;;;4.25;;
1545;SDS011;766;51.502;9.752;2022-11-15T04:39:39;6.35;;;3.88;;
1545;SDS011;766;51.502;9.752;2022-11-15T04:42:08;6.32;;;3.55;;
1545;SDS011;766;51.502;9.752;2022-11-15T04:44:37;4.63;;;3.08;;
1545;SDS011;766;51.502;9.752;2022-11-15T04:47:09;5.70;;;3.55;;
1545;SDS011;766;51.502;9.752;2022-11-15T04:49:37;8.02;;;3.08;;
1545;SDS011;766;51.502;9.752;2022-11-15T04:52:08;6.90;;;3.58;;
1545;SDS011;766;51.502;9.752;2022-11-15T04:54:36;7.78;;;3.92;;
1545;SDS011;766;51.502;9.752;2022-11-15T04:57:06;8.13;;;4.43;;
1545;SDS011;766;51.502;9.752;2022-11-15T04:59:34;5.90;;;3.42;;
1545;SDS011;766;51.502;9.752;2022-11-15T05:02:04;6.80;;;3.65;;
1545;SDS011;766;51.502;9.752;2022-11-15T05:04:34;6.65;;;3.58;;
1545;SDS011;766;51.502;9.752;2022-11-15T05:07:02;6.10;;;3.25;;
1545;SDS011;766;51.502;9.752;2022-11-15T05:09:36;5.93;;;3.38;;
1545;SDS011;766;51.502;9.752;2022-11-15T05:12:12;5.95;;;2.90;;
1545;SDS011;766;51.502;9.752;2022-11-15T05:14:40;6.82;;;3.63;;
1545;SDS011;766;51.502;9.752;2022-11-15T05:17:08;5.25;;;3.35;;
1545;SDS011;766;51.502;9.752;2022-11-15T05:19:39;6.63;;;3.53;;
1545;SDS011;766;51.502;9.752;2022-11-15T05:22:08;4.30;;;3.13;;
1545;SDS011;766;51.502;9.752;2022-11-15T05:24:40;5.88;;;3.05;;
1545;SDS011;766;51.502;9.752;2022-11-15T05:27:08;4.10;;;2.90;;
1545;SDS011;766;51.502;9.752;2022-11-15T05:29:37;6.40;;;3.50;;
1545;SDS011;766;51.502;9.752;2022-11-15T05:32:05;7.18;;;3.25;;
1545;SDS011;766;51.502;9.752;2022-11-15T05:34:36;5.25;;;3.10;;
1545;SDS011;766;51.502;9.752;2022-11-15T05:37:06;6.97;;;3.10;;
1545;SDS011;766;51.502;9.752;2022-11-15T05:39:35;6.40;;;2.80;;
1545;SDS011;766;51.502;9.752;2022-11-15T05:42:06;4.75;;;2.90;;
1545;SDS011;766;51.502;9.752;2022-11-15T05:44:37;4.85;;;3.05;;
1545;SDS011;766;51.502;9.752;2022-11-15T05:47:12;3.53;;;2.58;;
1545;SDS011;766;51.502;9.752;2022-11-15T05:49:44;7.50;;;3.08;;
1545;SDS011;766;51.502;9.752;2022-11-15T05:52:14;5.03;;;2.80;;
1545;SDS011;766;51.502;9.752;2022-11-15T05:54:46;4.93;;;2.97;;
1545;SDS011;766;51.502;9.752;2022-11-15T05:57:16;5.68;;;2.75;;
1545;SDS011;766;51.502;9.752;2022-11-15T05:59:46;8.23;;;2.85;;
1545;SDS011;766;51.502;9.752;2022-11-15T06:02:16;6.47;;;3.20;;
1545;SDS011;766;51.502;9.752;2022-11-15T06:04:45;6.07;;;3.17;;
1545;SDS011;766;51.502;9.752;2022-11-15T06:07:13;6.53;;;3.40;;
1545;SDS011;766;51.502;9.752;2022-11-15T06:09:42;7.68;;;2.70;;
1545;SDS011;766;51.502;9.752;2022-11-15T06:12:19;5.22;;;3.33;;
1545;SDS011;766;51.502;9.752;2022-11-15T06:14:48;5.85;;;2.95;;
1545;SDS011;766;51.502;9.752;2022-11-15T06:17:43;4.70;;;3.40;;
1545;SDS011;766;51.502;9.752;2022-11-15T06:20:13;3.85;;;2.63;;
1545;SDS011;766;51.502;9.752;2022-11-15T06:22:42;4.45;;;3.03;;
1545;SDS011;766;51.502;9.752;2022-11-15T06:25:11;7.65;;;3.60;;
1545;SDS011;766;51.502;9.752;2022-11-15T06:27:42;4.95;;;3.30;;
1545;SDS011;766;51.502;9.752;2022-11-15T06:30:19;6.82;;;3.47;;
1545;SDS011;766;51.502;9.752;2022-11-15T06:32:47;4.75;;;3.40;;
1545;SDS011;766;51.502;9.752;2022-11-15T06:35:15;5.57;;;3.28;;
1545;SDS011;766;51.502;9.752;2022-11-15T06:37:44;6.45;;;3.42;;
1545;SDS011;766;51.502;9.752;2022-11-15T06:40:13;5.10;;;3.58;;
1545;SDS011;766;51.502;9.752;2022-11-15T06:42:44;6.72;;;4.20;;
1545;SDS011;766;51.502;9.752;2022-11-15T06:45:14;7.40;;;3.65;;
1545;SDS011;766;51.502;9.752;2022-11-15T06:47:46;10.25;;;3.80;;
1545;SDS011;766;51.502;9.752;2022-11-15T06:50:14;7.97;;;3.38;;
1545;SDS011;766;51.502;9.752;2022-11-15T06:52:44;6.07;;;3.42;;
1545;SDS011;766;51.502;9.752;2022-11-15T06:55:14;4.63;;;3.40;;
1545;SDS011;766;51.502;9.752;2022-11-15T06:57:48;6.75;;;3.90;;
1545;SDS011;766;51.502;9.752;2022-11-15T07:00:20;4.38;;;3.20;;
1545;SDS011;766;51.502;9.752;2022-11-15T07:02:49;8.48;;;3.50;;
1545;SDS011;766;51.502;9.752;2022-11-15T07:05:18;5.28;;;3.45;;
1545;SDS011;766;51.502;9.752;2022-11-15T07:07:50;6.82;;;3.13;;
1545;SDS011;766;51.502;9.752;2022-11-15T07:10:21;6.75;;;3.83;;
1545;SDS011;766;51.502;9.752;2022-11-15T07:12:53;7.13;;;3.50;;
1545;SDS011;766;51.502;9.752;2022-11-15T07:15:23;6.82;;;3.58;;
1545;SDS011;766;51.502;9.752;2022-11-15T07:17:56;7.47;;;3.80;;
1545;SDS011;766;51.502;9.752;2022-11-15T07:20:30;11.73;;;4.07;;
1545;SDS011;766;51.502;9.752;2022-11-15T07:23:02;5.70;;;3.55;;
1545;SDS011;766;51.502;9.752;2022-11-15T07:25:31;5.03;;;3.42;;
1545;SDS011;766;51.502;9.752;2022-11-15T07:28:02;5.72;;;3.15;;
1545;SDS011;766;51.502;9.752;2022-11-15T07:30:32;6.35;;;3.65;;
1545;SDS011;766;51.502;9.752;2022-11-15T07:33:04;6.28;;;3.65;;
1545;SDS011;766;51.502;9.752;2022-11-15T07:35:33;9.63;;;4.43;;
1545;SDS011;766;51.502;9.752;2022-11-15T07:38:02;7.25;;;3.70;;
1545;SDS011;766;51.502;9.752;2022-11-15T07:40:32;5.55;;;3.78;;
1545;SDS011;766;51.502;9.752;2022-11-15T07:43:00;8.93;;;4.30;;
1545;SDS011;766;51.502;9.752;2022-11-15T07:45:31;7.53;;;4.03;;
1545;SDS011;766;51.502;9.752;2022-11-15T07:48:01;5.95;;;3.75;;
1545;SDS011;766;51.502;9.752;2022-11-15T07:50:30;8.20;;;4.13;;
1545;SDS011;766;51.502;9.752;2022-11-15T07:52:59;7.95;;;3.88;;
1545;SDS011;766;51.502;9.752;2022-11-15T07:55:28;8.32;;;4.13;;
1545;SDS011;766;51.502;9.752;2022-11-15T07:58:00;5.25;;;3.25;;
1545;SDS011;766;51.502;9.752;2022-11-15T08:00:30;5.97;;;3.60;;
1545;SDS011;766;51.502;9.752;2022-11-15T08:03:03;7.95;;;3.88;;
1545;SDS011;766;51.502;9.752;2022-11-15T08:05:32;14.05;;;3.72;;
1545;SDS011;766;51.502;9.752;2022-11-15T08:08:00;14.45;;;4.55;;
1545;SDS011;766;51.502;9.752;2022-11-15T08:10:29;5.05;;;2.90;;
1545;SDS011;766;51.502;9.752;2022-11-15T08:13:06;4.35;;;2.85;;
1545;SDS011;766;51.502;9.752;2022-11-15T08:15:37;3.17;;;2.70;;
1545;SDS011;766;51.502;9.752;2022-11-15T08:18:06;6.65;;;2.88;;
1545;SDS011;766;51.502;9.752;2022-11-15T08:20:38;5.43;;;2.88;;
1545;SDS011;766;51.502;9.752;2022-11-15T08:23:07;4.43;;;2.70;;
1545;SDS011;766;51.502;9.752;2022-11-15T08:25:38;6.47;;;2.88;;
1545;SDS011;766;51.502;9.752;2022-11-15T08:28:09;3.83;;;2.70;;
1545;SDS011;766;51.502;9.752;2022-11-15T08:30:39;4.07;;;2.42;;
1545;SDS011;766;51.502;9.752;2022-11-15T08:33:12;4.00;;;2.35;;
1545;SDS011;766;51.502;9.752;2022-11-15T08:35:41;5.18;;;2.63;;
1545;SDS011;766;51.502;9.752;2022-11-15T08:38:10;4.15;;;2.17;;
1545;SDS011;766;51.502;9.752;2022-11-15T08:40:39;5.45;;;3.10;;
1545;SDS011;766;51.502;9.752;2022-11-15T08:43:08;3.50;;;2.33;;
1545;SDS011;766;51.502;9.752;2022-11-15T08:45:40;4.32;;;2.30;;
1545;SDS011;766;51.502;9.752;2022-11-15T08:48:09;10.77;;;3.25;;
1545;SDS011;766;51.502;9.752;2022-11-15T08:50:38;4.97;;;3.10;;
1545;SDS011;766;51.502;9.752;2022-11-15T08:53:07;7.50;;;3.70;;
1545;SDS011;766;51.502;9.752;2022-11-15T08:55:36;5.53;;;3.20;;
1545;SDS011;766;51.502;9.752;2022-11-15T08:58:05;3.08;;;2.67;;
1545;SDS011;766;51.502;9.752;2022-11-15T09:00:35;3.88;;;2.83;;
1545;SDS011;766;51.502;9.752;2022-11-15T09:03:05;3.35;;;2.55;;
1545;SDS011;766;51.502;9.752;2022-11-15T09:05:36;4.72;;;3.03;;
1545;SDS011;766;51.502;9.752;2022-11-15T09:08:04;4.88;;;2.95;;
1545;SDS011;766;51.502;9.752;2022-11-15T09:10:53;5.85;;;2.55;;
1545;SDS011;766;51.502;9.752;2022-11-15T09:13:24;5.78;;;2.80;;
1545;SDS011;766;51.502;9.752;2022-11-15T09:15:56;4.55;;;3.00;;
1545;SDS011;766;51.502;9.752;2022-11-15T09:18:31;4.13;;;2.75;;
1545;SDS011;766;51.502;9.752;2022-11-15T09:21:07;4.30;;;2.92;;
1545;SDS011;766;51.502;9.752;2022-11-15T09:23:36;8.15;;;3.33;;
1545;SDS011;766;51.502;9.752;2022-11-15T09:26:05;5.00;;;3.13;;
1545;SDS011;766;51.502;9.752;2022-11-15T09:28:34;5.03;;;2.83;;
1545;SDS011;766;51.502;9.752;2022-11-15T09:31:05;3.83;;;2.90;;
1545;SDS011;766;51.502;9.752;2022-11-15T09:33:36;5.95;;;3.38;;
1545;SDS011;766;51.502;9.752;2022-11-15T09:36:05;4.78;;;2.60;;
1545;SDS011;766;51.502;9.752;2022-11-15T09:38:35;4.10;;;3.00;;
1545;SDS011;766;51.502;9.752;2022-11-15T09:41:18;5.45;;;3.03;;
1545;SDS011;766;51.502;9.752;2022-11-15T09:44:06;4.35;;;3.00;;
1545;SDS011;766;51.502;9.752;2022-11-15T09:46:55;8.23;;;3.67;;
1545;SDS011;766;51.502;9.752;2022-11-15T09:49:33;5.00;;;2.83;;
1545;SDS011;766;51.502;9.752;2022-11-15T09:52:01;5.32;;;3.20;;
1545;SDS011;766;51.502;9.752;2022-11-15T09:54:33;4.88;;;3.33;;
1545;SDS011;766;51.502;9.752;2022-11-15T09:57:24;9.82;;;3.22;;
1545;SDS011;766;51.502;9.752;2022-11-15T10:00:09;4.53;;;2.67;;
1545;SDS011;766;51.502;9.752;2022-11-15T10:03:08;3.85;;;2.80;;
1545;SDS011;766;51.502;9.752;2022-11-15T10:05:41;2.55;;;2.20;;
1545;SDS011;766;51.502;9.752;2022-11-15T10:08:23;3.17;;;2.33;;
1545;SDS011;766;51.502;9.752;2022-11-15T10:11:14;2.88;;;2.10;;
1545;SDS011;766;51.502;9.752;2022-11-15T10:14:05;4.10;;;2.35;;
1545;SDS011;766;51.502;9.752;2022-11-15T10:16:44;3.20;;;2.17;;
1545;SDS011;766;51.502;9.752;2022-11-15T10:19:50;3.75;;;1.95;;
1545;SDS011;766;51.502;9.752;2022-11-15T10:22:35;3.95;;;1.70;;
1545;SDS011;766;51.502;9.752;2022-11-15T10:25:12;4.55;;;1.88;;
1545;SDS011;766;51.502;9.752;2022-11-15T10:27:55;2.15;;;1.85;;
1545;SDS011;766;51.502;9.752;2022-11-15T10:30:34;4.53;;;2.00;;
1545;SDS011;766;51.502;9.752;2022-11-15T10:33:10;3.40;;;2.05;;
1545;SDS011;766;51.502;9.752;2022-11-15T10:38:57;3.47;;;1.90;;
1545;SDS011;766;51.502;9.752;2022-11-15T10:41:29;5.10;;;1.83;;
1545;SDS011;766;51.502;9.752;2022-11-15T10:44:02;5.60;;;2.42;;
1545;SDS011;766;51.502;9.752;2022-11-15T10:47:07;4.95;;;2.25;;
1545;SDS011;766;51.502;9.752;2022-11-15T10:50:00;5.32;;;2.20;;
1545;SDS011;766;51.502;9.752;2022-11-15T10:52:34;4.55;;;1.95;;
1545;SDS011;766;51.502;9.752;2022-11-15T10:55:20;4.05;;;2.40;;
1545;SDS011;766;51.502;9.752;2022-11-15T10:57:59;5.40;;;2.55;;
1545;SDS011;766;51.502;9.752;2022-11-15T11:00:34;2.78;;;2.05;;
1545;SDS011;766;51.502;9.752;2022-11-15T11:03:06;2.85;;;2.33;;
1545;SDS011;766;51.502;9.752;2022-11-15T11:05:52;2.80;;;2.17;;
1545;SDS011;766;51.502;9.752;2022-11-15T11:08:33;4.68;;;2.40;;
1545;SDS011;766;51.502;9.752;2022-11-15T11:11:06;3.15;;;2.10;;
1545;SDS011;766;51.502;9.752;2022-11-15T11:13:37;3.22;;;2.10;;
1545;SDS011;766;51.502;9.752;2022-11-15T11:16:14;6.18;;;2.33;;
1545;SDS011;766;51.502;9.752;2022-11-15T11:19:09;3.50;;;1.98;;
1545;SDS011;766;51.502;9.752;2022-11-15T11:21:49;1.95;;;1.70;;
1545;SDS011;766;51.502;9.752;2022-11-15T11:24:27;3.28;;;2.10;;
1545;SDS011;766;51.502;9.752;2022-11-15T11:27:08;3.30;;;1.83;;
1545;SDS011;766;51.502;9.752;2022-11-15T11:29:49;3.63;;;2.00;;
1545;SDS011;766;51.502;9.752;2022-11-15T11:32:40;4.30;;;1.98;;
1545;SDS011;766;51.502;9.752;2022-11-15T11:35:22;2.22;;;1.92;;
1545;SDS011;766;51.502;9.752;2022-11-15T11:37:54;2.95;;;2.53;;
1545;SDS011;766;51.502;9.752;2022-11-15T11:40:28;3.00;;;1.98;;
1545;SDS011;766;51.502;9.752;2022-11-15T11:43:03;3.42;;;2.42;;
1545;SDS011;766;51.502;9.752;2022-11-15T11:45:46;5.95;;;2.95;;
1545;SDS011;766;51.502;9.752;2022-11-15T11:48:38;4.10;;;2.10;;
1545;SDS011;766;51.502;9.752;2022-11-15T11:51:12;5.22;;;2.15;;
1545;SDS011;766;51.502;9.752;2022-11-15T11:53:51;4.20;;;1.90;;
1545;SDS011;766;51.502;9.752;2022-11-15T11:56:26;2.88;;;1.73;;
1545;SDS011;766;51.502;9.752;2022-11-15T11:59:00;3.38;;;1.88;;
1545;SDS011;766;51.502;9.752;2022-11-15T12:01:35;3.85;;;2.10;;
1545;SDS011;766;51.502;9.752;2022-11-15T12:04:11;3.33;;;1.73;;
1545;SDS011;766;51.502;9.752;2022-11-15T12:06:45;4.75;;;2.05;;
1545;SDS011;766;51.502;9.752;2022-11-15T12:09:20;6.07;;;2.40;;
1545;SDS011;766;51.502;9.752;2022-11-15T12:11:55;3.65;;;2.00;;
1545;SDS011;766;51.502;9.752;2022-11-15T12:14:35;3.13;;;2.20;;
1545;SDS011;766;51.502;9.752;2022-11-15T12:17:09;6.15;;;2.55;;
1545;SDS011;766;51.502;9.752;2022-11-15T12:19:39;4.40;;;2.42;;
1545;SDS011;766;51.502;9.752;2022-11-15T12:22:10;4.82;;;2.22;;
1545;SDS011;766;51.502;9.752;2022-11-15T12:24:47;3.13;;;2.20;;
1545;SDS011;766;51.502;9.752;2022-11-15T12:27:21;4.47;;;2.00;;
1545;SDS011;766;51.502;9.752;2022-11-15T12:30:00;4.70;;;2.25;;
1545;SDS011;766;51.502;9.752;2022-11-15T12:32:32;3.47;;;2.20;;
1545;SDS011;766;51.502;9.752;2022-11-15T12:35:05;6.65;;;2.30;;
1545;SDS011;766;51.502;9.752;2022-11-15T12:37:48;3.53;;;1.90;;
1545;SDS011;766;51.502;9.752;2022-11-15T12:40:19;3.30;;;1.92;;
1545;SDS011;766;51.502;9.752;2022-11-15T12:43:00;2.60;;;1.77;;
1545;SDS011;766;51.502;9.752;2022-11-15T12:45:34;3.33;;;1.95;;
1545;SDS011;766;51.502;9.752;2022-11-15T12:57:56;3.33;;;2.17;;
1545;SDS011;766;51.502;9.752;2022-11-15T13:00:59;5.00;;;1.70;;
1545;SDS011;766;51.502;9.752;2022-11-15T13:03:28;3.17;;;2.00;;
1545;SDS011;766;51.502;9.752;2022-11-15T13:06:00;2.60;;;2.10;;
1545;SDS011;766;51.502;9.752;2022-11-15T13:08:35;4.25;;;2.30;;
1545;SDS011;766;51.502;9.752;2022-11-15T13:17:29;3.90;;;2.38;;
1545;SDS011;766;51.502;9.752;2022-11-15T13:22:58;4.28;;;2.22;;
1545;SDS011;766;51.502;9.752;2022-11-15T13:25:44;3.03;;;2.22;;
1545;SDS011;766;51.502;9.752;2022-11-15T13:28:33;4.00;;;2.38;;
1545;SDS011;766;51.502;9.752;2022-11-15T13:31:13;8.18;;;2.65;;
1545;SDS011;766;51.502;9.752;2022-11-15T13:33:52;6.07;;;2.50;;
1545;SDS011;766;51.502;9.752;2022-11-15T13:36:23;4.93;;;2.30;;
1545;SDS011;766;51.502;9.752;2022-11-15T13:38:56;7.20;;;2.58;;
1545;SDS011;766;51.502;9.752;2022-11-15T13:41:26;3.75;;;2.90;;
1545;SDS011;766;51.502;9.752;2022-11-15T13:43:56;4.22;;;2.75;;
1545;SDS011;766;51.502;9.752;2022-11-15T13:46:26;5.28;;;3.05;;
1545;SDS011;766;51.502;9.752;2022-11-15T13:49:00;3.85;;;2.40;;
1545;SDS011;766;51.502;9.752;2022-11-15T13:51:32;4.60;;;2.50;;
1545;SDS011;766;51.502;9.752;2022-11-15T13:54:08;7.47;;;3.35;;
1545;SDS011;766;51.502;9.752;2022-11-15T13:56:47;6.40;;;2.90;;
1545;SDS011;766;51.502;9.752;2022-11-15T13:59:21;6.45;;;3.10;;
1545;SDS011;766;51.502;9.752;2022-11-15T14:01:56;3.47;;;2.33;;
1545;SDS011;766;51.502;9.752;2022-11-15T14:04:29;3.35;;;2.25;;
1545;SDS011;766;51.502;9.752;2022-11-15T14:07:01;6.43;;;2.72;;
1545;SDS011;766;51.502;9.752;2022-11-15T14:09:31;3.50;;;2.50;;
1545;SDS011;766;51.502;9.752;2022-11-15T14:14:52;3.58;;;2.65;;
1545;SDS011;766;51.502;9.752;2022-11-15T14:17:44;5.03;;;2.53;;
1545;SDS011;766;51.502;9.752;2022-11-15T14:21:23;5.78;;;2.70;;
1545;SDS011;766;51.502;9.752;2022-11-15T14:24:14;9.93;;;2.50;;
1545;SDS011;766;51.502;9.752;2022-11-15T15:31:37;5.65;;;3.20;;
1545;SDS011;766;51.502;9.752;2022-11-15T15:34:26;4.93;;;2.92;;
1545;SDS011;766;51.502;9.752;2022-11-15T15:37:19;6.80;;;3.58;;
1545;SDS011;766;51.502;9.752;2022-11-15T15:40:13;7.57;;;3.10;;
1545;SDS011;766;51.502;9.752;2022-11-15T15:43:03;12.07;;;3.40;;
1545;SDS011;766;51.502;9.752;2022-11-15T15:45:55;7.53;;;3.00;;
1545;SDS011;766;51.502;9.752;2022-11-15T15:48:47;10.20;;;3.38;;
1545;SDS011;766;51.502;9.752;2022-11-15T15:51:35;7.53;;;2.72;;
1545;SDS011;766;51.502;9.752;2022-11-15T15:54:24;4.22;;;2.60;;
1545;SDS011;766;51.502;9.752;2022-11-15T15:57:13;2.90;;;2.20;;
1545;SDS011;766;51.502;9.752;2022-11-15T16:00:02;3.80;;;2.90;;
1545;SDS011;766;51.502;9.752;2022-11-15T16:02:51;5.18;;;2.92;;
1545;SDS011;766;51.502;9.752;2022-11-15T16:05:42;6.80;;;3.30;;
1545;SDS011;766;51.502;9.752;2022-11-15T16:08:16;7.25;;;3.30;;
1545;SDS011;766;51.502;9.752;2022-11-15T16:10:45;5.57;;;3.50;;
1545;SDS011;766;51.502;9.752;2022-11-15T16:13:14;6.95;;;3.10;;
1545;SDS011;766;51.502;9.752;2022-11-15T16:15:43;5.32;;;3.47;;
1545;SDS011;766;51.502;9.752;2022-11-15T16:18:22;5.32;;;3.40;;
1545;SDS011;766;51.502;9.752;2022-11-15T16:20:54;5.72;;;3.65;;
1545;SDS011;766;51.502;9.752;2022-11-15T16:23:23;5.72;;;3.50;;
1545;SDS011;766;51.502;9.752;2022-11-15T16:25:52;4.30;;;3.40;;
1545;SDS011;766;51.502;9.752;2022-11-15T16:28:23;8.07;;;3.55;;
1545;SDS011;766;51.502;9.752;2022-11-15T16:30:59;5.40;;;3.42;;
1545;SDS011;766;51.502;9.752;2022-11-15T16:33:28;4.95;;;3.60;;
1545;SDS011;766;51.502;9.752;2022-11-15T16:36:00;6.43;;;4.38;;
1545;SDS011;766;51.502;9.752;2022-11-15T16:38:29;10.40;;;4.97;;
1545;SDS011;766;51.502;9.752;2022-11-15T16:40:58;8.88;;;4.82;;
1545;SDS011;766;51.502;9.752;2022-11-15T16:43:28;6.32;;;4.22;;
1545;SDS011;766;51.502;9.752;2022-11-15T16:45:56;5.70;;;3.10;;
1545;SDS011;766;51.502;9.752;2022-11-15T16:48:26;4.53;;;3.17;;
1545;SDS011;766;51.502;9.752;2022-11-15T16:50:55;4.88;;;3.40;;
1545;SDS011;766;51.502;9.752;2022-11-15T16:53:26;5.35;;;3.22;;
1545;SDS011;766;51.502;9.752;2022-11-15T16:55:56;4.28;;;3.10;;
1545;SDS011;766;51.502;9.752;2022-11-15T16:58:24;3.42;;;2.85;;
1545;SDS011;766;51.502;9.752;2022-11-15T17:00:57;4.68;;;3.00;;
1545;SDS011;766;51.502;9.752;2022-11-15T17:03:25;6.72;;;2.85;;
1545;SDS011;766;51.502;9.752;2022-11-15T17:05:57;6.53;;;3.20;;
1545;SDS011;766;51.502;9.752;2022-11-15T17:08:27;6.30;;;3.33;;
1545;SDS011;766;51.502;9.752;2022-11-15T17:10:57;6.97;;;3.25;;
1545;SDS011;766;51.502;9.752;2022-11-15T17:13:26;5.18;;;3.40;;
1545;SDS011;766;51.502;9.752;2022-11-15T17:16:02;4.45;;;3.28;;
1545;SDS011;766;51.502;9.752;2022-11-15T17:18:32;3.08;;;2.70;;
1545;SDS011;766;51.502;9.752;2022-11-15T17:21:04;3.88;;;3.15;;
1545;SDS011;766;51.502;9.752;2022-11-15T17:23:36;4.30;;;2.88;;
1545;SDS011;766;51.502;9.752;2022-11-15T17:26:06;5.53;;;3.13;;
1545;SDS011;766;51.502;9.752;2022-11-15T17:28:56;4.25;;;3.20;;
1545;SDS011;766;51.502;9.752;2022-11-15T17:31:26;6.93;;;3.78;;
1545;SDS011;766;51.502;9.752;2022-11-15T17:33:56;7.28;;;3.83;;
1545;SDS011;766;51.502;9.752;2022-11-15T17:36:24;4.10;;;2.88;;
1545;SDS011;766;51.502;9.752;2022-11-15T17:38:54;5.35;;;3.30;;
1545;SDS011;766;51.502;9.752;2022-11-15T17:41:25;6.72;;;3.50;;
1545;SDS011;766;51.502;9.752;2022-11-15T17:43:54;4.97;;;3.15;;
1545;SDS011;766;51.502;9.752;2022-11-15T17:46:24;5.30;;;3.33;;